Luhe, China
Current Conditions -  °F | °C
As of 5:00 AM on Thursday 18 Dec 2014 (Local Time) from ZSNJ Reporting Station
Clear Clear  
Wind Chill: 23°   Ceiling: Unl
Heat Index: 23°   Visibility: 5mi
Dew Point: 21°   Wind: 2mph
Humidity: 93%   Direction: 150°SSE
Pressure: 30.53"   Gusts: NA
Location:  32.34°N, 118.84°E
Report Text: ZSNJ 172100Z 15001MPS 8000 NSC M05/M06 Q1034 NOSIG
Loading
Personal Weather Stations






























Interactive Weather Map New forecast layout! Learn more

10-Day Weather Forecast

Advertisements
Track Severe Weather on mobile